Gainesville, Missouri
Current Conditions -  °F | °C
As of 11:53 AM on Thursday 30 Oct 2014 (Local Time) from KBPK Reporting Station
Clear Clear  
Wind Chill: 16°   Ceiling: Unl
Heat Index: 16°   Visibility: 10mi
Dew Point:   Wind: 3mph
Humidity: 46%   Direction: 170°S
Pressure: 30.11"   Gusts: NA
Location:  36.6°N, 92.43°W
Report Text: KBPK 301653Z AUTO 17003KT 10SM CLR 16/04 A3011 RMK AO2 SLP193 T01610044
Loading
Personal Weather Stations






























Interactive Weather Map
Tropical Storm Tracking
New forecast layout! Learn more

10-Day Weather Forecast

Advertisements
Track Severe Weather on mobile